Matson Kodiak — KGTZ — position and weather

sailwx.info

Track history (hours):
 
Tides and Currents Weather Stations Pressure Air Temp Water Temp Dewpoint Dewpoint Depression Visibility Wind Speed Wind Dir Waves Ship Positions

Matson Kodiak

Owner: Horizon Lines Alaska Vessels, LLC, Oakland, CA. More information available from US FCC via Universal Licensing System and Coast Guard Vessel Documentation Center.

Last reported at 2018-Jan-22 12:00 UTC. Time now 2018-Jan-22 16:07 UTC.
Position N 52°06' W 132°18'.

Type: Cargo ship. MMSI: 366793000.

Wind from 250 at 28 knots

Barometer 1006.5 mb
Air temperature 7.2 ° C
Visibility: greater than 10.8 NM
Dewpoint 2.4 ° C
Water temperature 9.4 ° C

Date/timePositionNaut miles runAvg speedWind from/ knotsBaromVisibWave heightAir tempDewpointWater temp
2018-Jan-22 12:00N 52°06' W 132°18'23519.6 250 / 281006.510.8 7.2 2.4 9.4
2018-Jan-22 00:00N 49°42' W 127°24'6015.3 240 / 271001.6 5.4 9.4 6.210.6
2018-Jan-21 20:03N 49°03' W 126°14'118.8
2018-Jan-21 19:59N 49°02' W 126°12'918.4
2018-Jan-21 19:31N 48°56' W 126°02'917.8
2018-Jan-21 19:00N 48°51' W 125°51'917.2
2018-Jan-21 18:30N 48°46' W 125°40'816.8
2018-Jan-21 18:00N 48°43' W 125°28'815.8
2018-Jan-21 17:30N 48°40' W 125°17'815.6
2018-Jan-21 17:01N 48°37' W 125°06'816.2
2018-Jan-21 16:30N 48°34' W 124°55'3717.5
2018-Jan-21 14:24N 48°20' W 124°03'718.2
2018-Jan-21 14:00N 48°17' W 123°53'917.8
2018-Jan-21 13:29N 48°15' W 123°40'816.2
2018-Jan-21 13:00N 48°13' W 123°28'713.6
2018-Jan-21 12:30N 48°08' W 123°22'815.3
2018-Jan-21 12:00N 48°11' W 123°11'816.7
2018-Jan-21 11:29N 48°12' W 122°58'917.7
2018-Jan-21 10:59N 48°10' W 122°45'1117.4
2018-Jan-21 10:20N 48°01' W 122°37'618.4
2018-Jan-21 10:00N 47°56' W 122°30'1019.2
2018-Jan-21 09:30N 47°47' W 122°26'1020.0
2018-Jan-21 09:01N 47°37' W 122°27'1020.1
2018-Jan-21 08:31N 47°27' W 122°24'714.7
2018-Jan-21 08:00N 47°20' W 122°26'4 7.3
2018-Jan-21 07:30N 47°16' W 122°25'0 0.9
2018-Jan-21 07:00N 47°16' W 122°25'0 0.0
2018-Jan-21 06:30N 47°16' W 122°25'0 0.0
2018-Jan-21 06:00N 47°16' W 122°25'0 0.0
2018-Jan-21 05:30N 47°16' W 122°25'0 0.0
2018-Jan-21 05:00N 47°16' W 122°25'0 0.0
2018-Jan-21 04:21N 47°16' W 122°25'0 0.0
2018-Jan-21 04:00N 47°16' W 122°25'0 0.0
2018-Jan-21 03:30N 47°16' W 122°25'0 0.0
2018-Jan-21 03:00N 47°16' W 122°25'0 0.0
2018-Jan-21 02:30N 47°16' W 122°25'0 0.0
2018-Jan-21 02:00N 47°16' W 122°25'0 0.0
2018-Jan-21 01:27N 47°16' W 122°25'0 0.0
2018-Jan-21 01:00N 47°16' W 122°25'0 0.0
2018-Jan-21 00:30N 47°16' W 122°25'0 0.0
2018-Jan-21 00:00N 47°16' W 122°25'0 0.0
2018-Jan-20 23:30N 47°16' W 122°25'0 0.0
2018-Jan-20 23:00N 47°16' W 122°25'0 0.0
2018-Jan-20 22:27N 47°16' W 122°25'0 0.0
2018-Jan-20 22:00N 47°16' W 122°25'0 0.0
2018-Jan-20 21:30N 47°16' W 122°25'0 0.0
2018-Jan-20 20:57N 47°16' W 122°25'0 0.0
2018-Jan-20 20:30N 47°16' W 122°25'0 0.0
2018-Jan-20 20:00N 47°16' W 122°25'0 0.0
2018-Jan-20 19:30N 47°16' W 122°25'0 0.0
2018-Jan-20 19:00N 47°16' W 122°25'0 0.0
2018-Jan-20 18:30N 47°16' W 122°25'0 0.0
2018-Jan-20 18:00N 47°16' W 122°25'0 0.0
2018-Jan-20 17:30N 47°16' W 122°25'0 0.0
2018-Jan-20 17:00N 47°16' W 122°25'0 0.0
2018-Jan-20 16:15N 47°16' W 122°25'0 0.0
2018-Jan-20 16:00N 47°16' W 122°25'0 0.0
2018-Jan-20 15:30N 47°16' W 122°25'0 0.1
2018-Jan-20 15:00N 47°16' W 122°25'2 3.6
2018-Jan-20 14:30N 47°18' W 122°27'612.3
2018-Jan-20 14:01N 47°23' W 122°22'816.1
2018-Jan-20 13:31N 47°31' W 122°26'816.7
2018-Jan-20 13:00N 47°39' W 122°28'816.3
2018-Jan-20 12:31N 47°47' W 122°27'917.3
2018-Jan-20 12:00N 47°55' W 122°30'1120.6
2018-Jan-20 11:29N 48°04' W 122°39'1020.9
2018-Jan-20 11:00N 48°11' W 122°50'1020.6
2018-Jan-20 10:30N 48°12' W 123°06'1416.6
2018-Jan-20 09:38N 48°11' W 123°27'416.0
2018-Jan-20 09:24N 48°13' W 123°32'716.7
2018-Jan-20 08:59N 48°13' W 123°43'816.9
2018-Jan-20 08:30N 48°13' W 123°55'817.0
2018-Jan-20 08:00N 48°17' W 124°06'917.7
2018-Jan-20 07:30N 48°21' W 124°18'917.9
2018-Jan-20 07:00N 48°24' W 124°31'917.4
2018-Jan-20 06:30N 48°28' W 124°43'917.4
2018-Jan-20 06:00N 48°29' W 124°56'917.5
2018-Jan-20 05:31N 48°29' W 125°09'917.9
2018-Jan-20 05:00N 48°30' W 125°22'918.1
2018-Jan-20 04:30N 48°35' W 125°34'917.9
2018-Jan-20 04:00N 48°39' W 125°45'917.8
2018-Jan-20 03:31N 48°44' W 125°57'917.8
2018-Jan-20 03:01N 48°48' W 126°08'1017.8
2018-Jan-20 02:28N 48°53' W 126°21'817.9
2018-Jan-20 02:00N 48°57' W 126°32'917.8
2018-Jan-20 01:30N 49°02' W 126°44'918.0
2018-Jan-20 01:01N 49°07' W 126°54'917.9
2018-Jan-20 00:31N 49°13' W 127°05'11417.5
2018-Jan-19 18:00N 50°12' W 129°36'40616.9 270 / 25994.1 5.4 9.4 7.3 8.3
2018-Jan-18 18:00N 53°48' W 138°54'   360 / 30988.5 5.4 5.6 3.0 6.1
2018-Jan-14 06:00N 59°48' W 152°00'7011.7 090 / 18983.0 5.0 3.7 5.6
2018-Jan-14 00:00N 58°48' W 150°48'69319.3 180 / 35975.2 5.4 6.1 3.7 6.1
2018-Jan-12 12:00N 52°36' W 133°30'   150 / 241014.5 5.4 8.9 4.3 8.9
Track history (hours):
 
Tides and Currents Weather Stations Pressure Air Temp Water Temp Dewpoint Dewpoint Depression Visibility Wind Speed Wind Dir Waves Ship Positions

Matson Kodiak

Owner: Horizon Lines Alaska Vessels, LLC, Oakland, CA. More information available from US FCC via Universal Licensing System and Coast Guard Vessel Documentation Center.

Last reported at 2018-Jan-22 12:00 UTC. Time now 2018-Jan-22 16:07 UTC.
Position N 52°06' W 132°18'.

Type: Cargo ship. MMSI: 366793000.

Wind from 250 at 28 knots

Barometer 1006.5 mb
Air temperature 7.2 ° C
Visibility: greater than 10.8 NM
Dewpoint 2.4 ° C
Water temperature 9.4 ° C

Date/timePositionNaut miles runAvg speedWind from/ knotsBaromVisibWave heightAir tempDewpointWater temp
2018-Jan-22 12:00N 52°06' W 132°18'23519.6 250 / 281006.510.8 7.2 2.4 9.4
2018-Jan-22 00:00N 49°42' W 127°24'6015.3 240 / 271001.6 5.4 9.4 6.210.6
2018-Jan-21 20:03N 49°03' W 126°14'118.8
2018-Jan-21 19:59N 49°02' W 126°12'918.4
2018-Jan-21 19:31N 48°56' W 126°02'917.8
2018-Jan-21 19:00N 48°51' W 125°51'917.2
2018-Jan-21 18:30N 48°46' W 125°40'816.8
2018-Jan-21 18:00N 48°43' W 125°28'815.8
2018-Jan-21 17:30N 48°40' W 125°17'815.6
2018-Jan-21 17:01N 48°37' W 125°06'816.2
2018-Jan-21 16:30N 48°34' W 124°55'3717.5
2018-Jan-21 14:24N 48°20' W 124°03'718.2
2018-Jan-21 14:00N 48°17' W 123°53'917.8
2018-Jan-21 13:29N 48°15' W 123°40'816.2
2018-Jan-21 13:00N 48°13' W 123°28'713.6
2018-Jan-21 12:30N 48°08' W 123°22'815.3
2018-Jan-21 12:00N 48°11' W 123°11'816.7
2018-Jan-21 11:29N 48°12' W 122°58'917.7
2018-Jan-21 10:59N 48°10' W 122°45'1117.4
2018-Jan-21 10:20N 48°01' W 122°37'618.4
2018-Jan-21 10:00N 47°56' W 122°30'1019.2
2018-Jan-21 09:30N 47°47' W 122°26'1020.0
2018-Jan-21 09:01N 47°37' W 122°27'1020.1
2018-Jan-21 08:31N 47°27' W 122°24'714.7
2018-Jan-21 08:00N 47°20' W 122°26'4 7.3
2018-Jan-21 07:30N 47°16' W 122°25'0 0.9
2018-Jan-21 07:00N 47°16' W 122°25'0 0.0
2018-Jan-21 06:30N 47°16' W 122°25'0 0.0
2018-Jan-21 06:00N 47°16' W 122°25'0 0.0
2018-Jan-21 05:30N 47°16' W 122°25'0 0.0
2018-Jan-21 05:00N 47°16' W 122°25'0 0.0
2018-Jan-21 04:21N 47°16' W 122°25'0 0.0
2018-Jan-21 04:00N 47°16' W 122°25'0 0.0
2018-Jan-21 03:30N 47°16' W 122°25'0 0.0
2018-Jan-21 03:00N 47°16' W 122°25'0 0.0
2018-Jan-21 02:30N 47°16' W 122°25'0 0.0
2018-Jan-21 02:00N 47°16' W 122°25'0 0.0
2018-Jan-21 01:27N 47°16' W 122°25'0 0.0
2018-Jan-21 01:00N 47°16' W 122°25'0 0.0
2018-Jan-21 00:30N 47°16' W 122°25'0 0.0
2018-Jan-21 00:00N 47°16' W 122°25'0 0.0
2018-Jan-20 23:30N 47°16' W 122°25'0 0.0
2018-Jan-20 23:00N 47°16' W 122°25'0 0.0
2018-Jan-20 22:27N 47°16' W 122°25'0 0.0
2018-Jan-20 22:00N 47°16' W 122°25'0 0.0
2018-Jan-20 21:30N 47°16' W 122°25'0 0.0
2018-Jan-20 20:57N 47°16' W 122°25'0 0.0
2018-Jan-20 20:30N 47°16' W 122°25'0 0.0
2018-Jan-20 20:00N 47°16' W 122°25'0 0.0
2018-Jan-20 19:30N 47°16' W 122°25'0 0.0
2018-Jan-20 19:00N 47°16' W 122°25'0 0.0
2018-Jan-20 18:30N 47°16' W 122°25'0 0.0
2018-Jan-20 18:00N 47°16' W 122°25'0 0.0
2018-Jan-20 17:30N 47°16' W 122°25'0 0.0
2018-Jan-20 17:00N 47°16' W 122°25'0 0.0
2018-Jan-20 16:15N 47°16' W 122°25'0 0.0
2018-Jan-20 16:00N 47°16' W 122°25'0 0.0
2018-Jan-20 15:30N 47°16' W 122°25'0 0.1
2018-Jan-20 15:00N 47°16' W 122°25'2 3.6
2018-Jan-20 14:30N 47°18' W 122°27'612.3
2018-Jan-20 14:01N 47°23' W 122°22'816.1
2018-Jan-20 13:31N 47°31' W 122°26'816.7
2018-Jan-20 13:00N 47°39' W 122°28'816.3
2018-Jan-20 12:31N 47°47' W 122°27'917.3
2018-Jan-20 12:00N 47°55' W 122°30'1120.6
2018-Jan-20 11:29N 48°04' W 122°39'1020.9
2018-Jan-20 11:00N 48°11' W 122°50'1020.6
2018-Jan-20 10:30N 48°12' W 123°06'1416.6
2018-Jan-20 09:38N 48°11' W 123°27'416.0
2018-Jan-20 09:24N 48°13' W 123°32'716.7
2018-Jan-20 08:59N 48°13' W 123°43'816.9
2018-Jan-20 08:30N 48°13' W 123°55'817.0
2018-Jan-20 08:00N 48°17' W 124°06'917.7
2018-Jan-20 07:30N 48°21' W 124°18'917.9
2018-Jan-20 07:00N 48°24' W 124°31'917.4
2018-Jan-20 06:30N 48°28' W 124°43'917.4
2018-Jan-20 06:00N 48°29' W 124°56'917.5
2018-Jan-20 05:31N 48°29' W 125°09'917.9
2018-Jan-20 05:00N 48°30' W 125°22'918.1
2018-Jan-20 04:30N 48°35' W 125°34'917.9
2018-Jan-20 04:00N 48°39' W 125°45'917.8
2018-Jan-20 03:31N 48°44' W 125°57'917.8
2018-Jan-20 03:01N 48°48' W 126°08'1017.8
2018-Jan-20 02:28N 48°53' W 126°21'817.9
2018-Jan-20 02:00N 48°57' W 126°32'917.8
2018-Jan-20 01:30N 49°02' W 126°44'918.0
2018-Jan-20 01:01N 49°07' W 126°54'917.9
2018-Jan-20 00:31N 49°13' W 127°05'11417.5
2018-Jan-19 18:00N 50°12' W 129°36'40616.9 270 / 25994.1 5.4 9.4 7.3 8.3
2018-Jan-18 18:00N 53°48' W 138°54'   360 / 30988.5 5.4 5.6 3.0 6.1
2018-Jan-14 06:00N 59°48' W 152°00'7011.7 090 / 18983.0 5.0 3.7 5.6
2018-Jan-14 00:00N 58°48' W 150°48'69319.3 180 / 35975.2 5.4 6.1 3.7 6.1
2018-Jan-12 12:00N 52°36' W 133°30'   150 / 241014.5 5.4 8.9 4.3 8.9

Dump ship's entire track history